Time;durP1;ratioP1;P1;durP2;ratioP2;P2;SDS_P1;SDS_P2;PMS_P1;PMS_P2;Temp;Humidity;BMP_temperature;BMP_pressure;BME280_temperature;BME280_humidity;BME280_pressure;Samples;Min_cycle;Max_cycle;Signal;HPM_P1;HPM_P2
2024/03/18 00:00:20;;;;;;;32.67;29.35;;;7.60;99.90;;;;;;4935867;28;20084;-69
2024/03/18 00:02:54;;;;;;;32.42;29.25;;;7.60;99.90;;;;;;4957341;28;20046;-69
2024/03/18 00:05:21;;;;;;;32.35;29.10;;;7.60;99.90;;;;;;4953525;28;20043;-68
2024/03/18 00:07:51;;;;;;;32.80;29.67;;;7.60;99.90;;;;;;4956918;28;20050;-68
2024/03/18 00:10:18;;;;;;;34.88;30.40;;;7.60;99.90;;;;;;4957822;28;20120;-68
2024/03/18 00:12:45;;;;;;;33.53;30.20;;;7.50;99.90;;;;;;4970707;28;20050;-69
2024/03/18 00:15:14;;;;;;;31.98;28.75;;;7.50;99.90;;;;;;4955487;28;20842;-69
2024/03/18 00:17:40;;;;;;;34.47;30.88;;;7.40;99.90;;;;;;4991301;28;20547;-69
2024/03/18 00:20:10;;;;;;;34.30;30.90;;;7.40;99.90;;;;;;4975308;28;20416;-69
2024/03/18 00:22:37;;;;;;;35.03;31.02;;;7.40;99.90;;;;;;4959614;28;20050;-68
2024/03/18 00:25:03;;;;;;;32.42;29.08;;;7.30;99.90;;;;;;4961887;28;20045;-69
2024/03/18 00:27:30;;;;;;;31.92;28.70;;;7.30;99.90;;;;;;4958773;28;20050;-68
2024/03/18 00:29:56;;;;;;;33.75;30.15;;;7.30;99.90;;;;;;4940324;28;20050;-68
2024/03/18 00:32:23;;;;;;;36.42;30.52;;;7.30;99.90;;;;;;4959901;28;20047;-68
2024/03/18 00:34:52;;;;;;;33.42;29.85;;;7.20;99.90;;;;;;4953144;28;20060;-69
2024/03/18 00:37:19;;;;;;;32.97;29.60;;;7.20;99.90;;;;;;4972499;28;20589;-68
2024/03/18 00:39:45;;;;;;;33.83;30.23;;;7.20;99.90;;;;;;4970429;28;20039;-70
2024/03/18 00:42:11;;;;;;;33.00;29.58;;;7.20;99.90;;;;;;4955808;28;21564;-70
2024/03/18 00:44:37;;;;;;;30.70;27.70;;;7.10;99.90;;;;;;4970640;28;20526;-68
2024/03/18 00:47:04;;;;;;;34.75;30.90;;;7.10;99.90;;;;;;4973525;28;20039;-69
2024/03/18 00:49:30;;;;;;;33.90;30.55;;;7.10;99.90;;;;;;4953408;28;20042;-70
2024/03/18 00:51:56;;;;;;;34.97;30.23;;;7.20;99.90;;;;;;4937371;28;20055;-69
2024/03/18 00:54:23;;;;;;;33.42;29.83;;;7.10;99.90;;;;;;4943880;28;20026;-69
2024/03/18 00:56:50;;;;;;;35.97;31.50;;;7.10;99.90;;;;;;4973595;28;20031;-70
2024/03/18 00:59:16;;;;;;;33.45;30.02;;;7.10;99.90;;;;;;4947966;28;20847;-67
2024/03/18 01:01:42;;;;;;;35.83;31.10;;;7.10;99.90;;;;;;4958813;28;20074;-67
2024/03/18 01:04:09;;;;;;;36.90;31.30;;;7.10;99.90;;;;;;4974491;28;20590;-69
2024/03/18 01:06:36;;;;;;;34.97;31.38;;;7.10;99.90;;;;;;4952896;28;20066;-69
2024/03/18 01:09:04;;;;;;;34.65;31.02;;;7.10;99.90;;;;;;4964058;28;20051;-69
2024/03/18 01:11:30;;;;;;;43.08;32.03;;;7.10;99.90;;;;;;4955789;28;20563;-70
2024/03/18 01:13:56;;;;;;;35.22;31.45;;;7.00;99.90;;;;;;4950895;28;20051;-68
2024/03/18 01:16:26;;;;;;;35.95;31.48;;;7.00;99.90;;;;;;4951528;28;20039;-68
2024/03/18 01:18:56;;;;;;;35.05;31.27;;;7.10;99.90;;;;;;4975239;28;20737;-69
2024/03/18 01:21:23;;;;;;;35.97;32.17;;;7.10;99.90;;;;;;4934688;28;20652;-69
2024/03/18 01:23:50;;;;;;;37.03;32.72;;;7.00;99.90;;;;;;4952586;28;20099;-69
2024/03/18 01:26:18;;;;;;;38.08;31.55;;;7.00;99.90;;;;;;4948974;28;20039;-70
2024/03/18 01:28:46;;;;;;;35.65;31.85;;;7.00;99.90;;;;;;4947959;28;20050;-69
2024/03/18 01:31:13;;;;;;;36.33;32.38;;;7.00;99.90;;;;;;4945151;28;20042;-68
2024/03/18 01:33:39;;;;;;;37.50;33.40;;;7.00;99.90;;;;;;4932764;28;20058;-70
2024/03/18 01:36:05;;;;;;;38.03;30.73;;;7.10;99.90;;;;;;4967535;28;20133;-69
2024/03/18 01:38:33;;;;;;;35.67;31.88;;;7.00;99.90;;;;;;4952529;28;20078;-70
2024/03/18 01:40:59;;;;;;;35.72;32.03;;;7.00;99.90;;;;;;4951547;28;20617;-69
2024/03/18 01:43:25;;;;;;;39.25;32.60;;;7.00;99.90;;;;;;4926724;28;20121;-69
2024/03/18 01:45:51;;;;;;;35.70;31.83;;;7.00;99.90;;;;;;4933745;28;20049;-69
2024/03/18 01:48:18;;;;;;;37.42;33.45;;;6.90;99.90;;;;;;4933872;28;20031;-69
2024/03/18 01:50:45;;;;;;;35.95;31.50;;;7.00;99.90;;;;;;4953595;28;20058;-68
2024/03/18 01:53:13;;;;;;;39.05;33.03;;;7.00;99.90;;;;;;4940594;28;20593;-68
2024/03/18 01:55:40;;;;;;;35.60;31.90;;;7.00;99.90;;;;;;4955948;28;20527;-70
2024/03/18 01:58:07;;;;;;;36.50;31.40;;;6.90;99.90;;;;;;4971194;28;20038;-71
2024/03/18 02:00:37;;;;;;;36.13;32.35;;;7.00;99.90;;;;;;4956812;28;20712;-70
2024/03/18 02:03:29;;;;;;;41.72;32.40;;;6.90;99.90;;;;;;4972580;28;20041;-69
2024/03/18 02:05:55;;;;;;;36.92;30.98;;;6.90;99.90;;;;;;4951568;28;20042;-68
2024/03/18 02:08:23;;;;;;;38.63;31.33;;;6.90;99.90;;;;;;4972810;28;20751;-69
2024/03/18 02:10:50;;;;;;;37.38;33.30;;;6.90;99.90;;;;;;4940611;28;20657;-69
2024/03/18 02:13:16;;;;;;;39.97;32.88;;;6.90;99.90;;;;;;4952578;28;20061;-69
2024/03/18 02:15:42;;;;;;;40.42;33.40;;;6.90;99.90;;;;;;4930881;28;20164;-70
2024/03/18 02:18:08;;;;;;;35.55;31.38;;;7.00;99.90;;;;;;4950921;28;20182;-69
2024/03/18 02:20:36;;;;;;;38.58;33.35;;;7.00;99.90;;;;;;4940283;28;20049;-69
2024/03/18 02:23:02;;;;;;;38.88;32.05;;;7.00;99.90;;;;;;4957401;28;20042;-69
2024/03/18 02:25:28;;;;;;;37.00;31.98;;;7.00;99.90;;;;;;4954985;28;20050;-69
2024/03/18 02:27:54;;;;;;;36.17;32.30;;;6.90;99.90;;;;;;4938873;28;20054;-69
2024/03/18 02:30:20;;;;;;;36.65;32.13;;;6.90;99.90;;;;;;4957186;28;20034;-70
2024/03/18 02:32:46;;;;;;;43.55;32.97;;;6.80;99.90;;;;;;4955234;28;21640;-68
2024/03/18 02:35:16;;;;;;;41.83;33.60;;;6.90;99.90;;;;;;4950839;28;20051;-68
2024/03/18 02:37:46;;;;;;;38.50;30.15;;;6.90;99.90;;;;;;4968777;28;20042;-69
2024/03/18 02:40:13;;;;;;;36.28;32.47;;;6.90;99.90;;;;;;4954277;28;20531;-69
2024/03/18 02:42:40;;;;;;;42.35;34.67;;;6.90;99.90;;;;;;4957612;28;20050;-68
2024/03/18 02:45:11;;;;;;;38.67;32.70;;;6.90;99.90;;;;;;5002753;28;20097;-69
2024/03/18 02:47:38;;;;;;;43.42;32.55;;;6.90;99.90;;;;;;4957999;28;20684;-69
2024/03/18 02:50:14;;;;;;;39.88;32.30;;;6.90;99.90;;;;;;4956120;28;20050;-70
2024/03/18 02:52:41;;;;;;;43.63;33.58;;;6.80;99.90;;;;;;4970064;28;20135;-67
2024/03/18 02:55:07;;;;;;;39.80;31.23;;;6.80;99.90;;;;;;4954535;28;20054;-69
2024/03/18 02:57:33;;;;;;;39.63;33.05;;;6.80;99.90;;;;;;4969832;28;20431;-68
2024/03/18 03:00:04;;;;;;;39.50;30.20;;;6.80;99.90;;;;;;4954657;28;21458;-67
2024/03/18 03:02:30;;;;;;;40.00;32.55;;;6.80;99.90;;;;;;4973409;28;20042;-68
2024/03/18 03:04:56;;;;;;;42.95;32.15;;;6.80;99.90;;;;;;4973279;28;20030;-69
2024/03/18 03:07:22;;;;;;;38.20;33.40;;;6.80;99.90;;;;;;4950258;28;20062;-69
2024/03/18 03:09:49;;;;;;;35.28;31.48;;;6.80;99.90;;;;;;4946105;28;20034;-69
2024/03/18 03:12:15;;;;;;;36.92;32.67;;;6.80;99.90;;;;;;4969449;28;20554;-69
2024/03/18 03:14:41;;;;;;;42.05;32.33;;;6.70;99.90;;;;;;4970911;28;20058;-68
2024/03/18 03:17:08;;;;;;;39.13;32.58;;;6.70;99.90;;;;;;4949789;28;20065;-69
2024/03/18 03:19:35;;;;;;;37.00;30.58;;;6.70;99.90;;;;;;4946361;28;20058;-67
2024/03/18 03:22:02;;;;;;;38.65;33.05;;;6.70;99.90;;;;;;4969446;28;20046;-67
2024/03/18 03:24:29;;;;;;;38.65;34.45;;;6.60;99.90;;;;;;4973456;28;20042;-69
2024/03/18 03:26:56;;;;;;;38.65;31.95;;;6.60;99.90;;;;;;4961599;28;20069;-70
2024/03/18 03:29:22;;;;;;;35.13;31.33;;;6.60;99.90;;;;;;4953891;28;20050;-69
2024/03/18 03:31:48;;;;;;;37.70;31.90;;;6.60;99.90;;;;;;4951312;28;20054;-67
2024/03/18 03:34:14;;;;;;;38.50;32.85;;;6.60;99.90;;;;;;4969216;28;20486;-70
2024/03/18 03:36:41;;;;;;;36.60;30.90;;;6.70;99.90;;;;;;4936182;28;20049;-69
2024/03/18 03:39:08;;;;;;;41.70;32.38;;;6.70;99.90;;;;;;4955467;28;20053;-69
2024/03/18 03:41:35;;;;;;;35.75;31.05;;;6.70;99.90;;;;;;4953963;28;20495;-69
2024/03/18 03:44:01;;;;;;;40.85;31.85;;;6.60;99.90;;;;;;4961789;28;20055;-69
2024/03/18 03:46:27;;;;;;;39.50;31.83;;;6.60;99.90;;;;;;4937923;28;20539;-68
2024/03/18 03:48:53;;;;;;;40.17;31.75;;;6.50;99.90;;;;;;4947286;28;20759;-70
2024/03/18 03:51:19;;;;;;;35.00;30.25;;;6.50;99.90;;;;;;4935014;28;20166;-69
2024/03/18 03:53:46;;;;;;;33.92;29.65;;;6.50;99.90;;;;;;4975626;28;20063;-67
2024/03/18 03:56:15;;;;;;;41.95;30.45;;;6.50;99.90;;;;;;4978395;28;20420;-70
2024/03/18 03:58:46;;;;;;;38.25;30.83;;;6.50;99.90;;;;;;4967799;28;20062;-69
2024/03/18 04:01:12;;;;;;;38.97;32.45;;;6.50;99.90;;;;;;4953199;28;20065;-70
2024/03/18 04:03:38;;;;;;;40.40;31.67;;;6.50;99.90;;;;;;4952205;28;20046;-70
2024/03/18 04:06:04;;;;;;;39.40;32.22;;;6.50;99.90;;;;;;4927345;28;20046;-69
2024/03/18 04:08:30;;;;;;;40.22;31.05;;;6.50;99.90;;;;;;4951989;28;20054;-69
2024/03/18 04:10:57;;;;;;;37.53;32.38;;;6.50;99.90;;;;;;4969268;28;20047;-69
2024/03/18 04:13:24;;;;;;;43.42;31.80;;;6.40;99.90;;;;;;4934420;28;20070;-69
2024/03/18 04:15:50;;;;;;;35.25;31.50;;;6.50;99.90;;;;;;4944770;28;20042;-69
2024/03/18 04:18:16;;;;;;;37.60;32.38;;;6.40;99.90;;;;;;4947030;28;20049;-69
2024/03/18 04:20:43;;;;;;;40.97;31.25;;;6.40;99.90;;;;;;4949909;28;20038;-69
2024/03/18 04:23:10;;;;;;;35.28;30.65;;;6.40;99.90;;;;;;4949803;28;20052;-67
2024/03/18 04:25:37;;;;;;;35.97;31.05;;;6.40;99.90;;;;;;4967705;28;20053;-68
2024/03/18 04:28:06;;;;;;;37.95;32.40;;;6.40;99.90;;;;;;4944868;28;20054;-70
2024/03/18 04:30:35;;;;;;;38.88;31.90;;;6.40;99.90;;;;;;4934750;28;20047;-69
2024/03/18 04:33:01;;;;;;;37.88;31.83;;;6.40;99.90;;;;;;4949585;28;20046;-69
2024/03/18 04:35:28;;;;;;;37.83;30.27;;;6.40;99.90;;;;;;4931415;28;20042;-69
2024/03/18 04:37:55;;;;;;;34.70;31.08;;;6.30;99.90;;;;;;4959199;28;20046;-69
2024/03/18 04:40:26;;;;;;;38.55;32.10;;;6.30;99.90;;;;;;4952287;28;20038;-69
2024/03/18 04:42:57;;;;;;;37.60;32.55;;;6.40;99.90;;;;;;4949934;28;20045;-69
2024/03/18 04:45:25;;;;;;;36.42;30.63;;;6.40;99.90;;;;;;4962845;28;20035;-70
2024/03/18 04:47:53;;;;;;;36.08;31.35;;;6.30;99.90;;;;;;4948238;28;20050;-69
2024/03/18 04:50:22;;;;;;;36.90;32.42;;;6.30;99.90;;;;;;4977963;28;20038;-70
2024/03/18 04:52:49;;;;;;;35.42;31.00;;;6.30;99.90;;;;;;4950614;28;20046;-69
2024/03/18 04:55:16;;;;;;;38.17;30.35;;;6.30;99.90;;;;;;4936344;28;20050;-68
2024/03/18 04:57:42;;;;;;;38.85;30.73;;;6.30;99.90;;;;;;4948772;28;20431;-69
2024/03/18 05:00:11;;;;;;;34.53;30.35;;;6.30;99.90;;;;;;4945884;28;20058;-70
2024/03/18 05:02:41;;;;;;;35.53;30.25;;;6.20;99.90;;;;;;4939898;28;20046;-69
2024/03/18 05:05:09;;;;;;;35.83;31.95;;;6.20;99.90;;;;;;4964251;28;21567;-68
2024/03/18 05:07:36;;;;;;;42.65;32.25;;;6.30;99.90;;;;;;4972077;28;20553;-69
2024/03/18 05:10:03;;;;;;;38.13;31.73;;;6.30;99.90;;;;;;4950651;28;20046;-69
2024/03/18 05:12:30;;;;;;;36.78;32.78;;;6.30;99.90;;;;;;4950113;28;20089;-70
2024/03/18 05:14:57;;;;;;;40.17;33.53;;;6.30;99.90;;;;;;4952140;28;20045;-69
2024/03/18 05:17:24;;;;;;;38.05;32.83;;;6.40;99.90;;;;;;4950527;28;20467;-68
2024/03/18 05:19:51;;;;;;;37.15;33.35;;;6.30;99.90;;;;;;4946847;28;20547;-69
2024/03/18 05:22:18;;;;;;;35.30;31.13;;;6.30;99.90;;;;;;4965652;28;20786;-70
2024/03/18 05:24:45;;;;;;;35.95;31.77;;;6.30;99.90;;;;;;4949273;28;20050;-69
2024/03/18 05:27:19;;;;;;;35.53;31.75;;;6.20;99.90;;;;;;4945296;28;20507;-67
2024/03/18 05:29:46;;;;;;;37.90;33.33;;;6.20;99.90;;;;;;4952857;28;20066;-69
2024/03/18 05:32:14;;;;;;;37.65;32.65;;;6.20;99.90;;;;;;4950699;28;20281;-68
2024/03/18 05:34:41;;;;;;;39.17;31.30;;;6.20;99.90;;;;;;4966664;28;20773;-70
2024/03/18 05:37:12;;;;;;;38.97;34.47;;;6.20;99.90;;;;;;4966867;28;20057;-68
2024/03/18 05:39:38;;;;;;;38.53;32.35;;;6.10;99.90;;;;;;4999985;28;20047;-70
2024/03/18 05:42:06;;;;;;;38.15;31.00;;;6.10;99.90;;;;;;4968355;28;20509;-69
2024/03/18 05:44:32;;;;;;;41.50;32.40;;;6.10;99.90;;;;;;4944795;28;20088;-69
2024/03/18 05:46:59;;;;;;;35.15;31.33;;;6.10;99.90;;;;;;4975178;28;20038;-69
2024/03/18 05:49:26;;;;;;;45.67;41.22;;;6.20;99.90;;;;;;4964916;28;20047;-69
2024/03/18 05:51:52;;;;;;;47.60;42.92;;;6.20;99.90;;;;;;4955129;28;20042;-69
2024/03/18 05:54:19;;;;;;;46.28;41.92;;;6.20;99.90;;;;;;4959079;28;20134;-69
2024/03/18 05:56:45;;;;;;;46.10;42.03;;;6.20;99.90;;;;;;4955871;28;20109;-67
2024/03/18 05:59:11;;;;;;;45.80;41.55;;;6.30;99.90;;;;;;4974004;28;20392;-68
2024/03/18 06:01:38;;;;;;;45.90;41.95;;;6.20;99.90;;;;;;4965387;28;20035;-69
2024/03/18 06:04:08;;;;;;;45.30;41.33;;;6.20;99.90;;;;;;4953296;28;20050;-69
2024/03/18 06:06:34;;;;;;;47.00;42.88;;;6.30;99.90;;;;;;4949953;28;20773;-70
2024/03/18 06:09:02;;;;;;;45.65;41.53;;;6.20;99.90;;;;;;4956365;28;20053;-70
2024/03/18 06:11:28;;;;;;;46.75;42.28;;;6.30;99.90;;;;;;4975105;28;20038;-69
2024/03/18 06:13:55;;;;;;;45.47;41.13;;;6.30;99.90;;;;;;4978310;28;20043;-68
2024/03/18 06:16:21;;;;;;;45.00;40.95;;;6.30;99.90;;;;;;4970460;28;20039;-69
2024/03/18 06:18:49;;;;;;;44.90;40.42;;;6.40;99.90;;;;;;4952065;28;20073;-67
2024/03/18 06:21:18;;;;;;;43.25;39.45;;;6.40;99.90;;;;;;4963418;28;20038;-68
2024/03/18 06:23:51;;;;;;;42.72;38.97;;;6.40;99.90;;;;;;4969831;28;20675;-69
2024/03/18 06:26:17;;;;;;;44.25;40.30;;;6.50;99.90;;;;;;4972528;28;20660;-69
2024/03/18 06:28:45;;;;;;;44.70;40.72;;;6.50;99.90;;;;;;4952406;28;20066;-68
2024/03/18 06:31:11;;;;;;;40.78;37.15;;;6.50;99.90;;;;;;4959971;28;20054;-69
2024/03/18 06:33:38;;;;;;;42.13;38.20;;;6.60;99.90;;;;;;4961517;28;20058;-69
2024/03/18 06:36:10;;;;;;;41.33;37.28;;;6.70;99.90;;;;;;4950355;28;20085;-68
2024/03/18 06:38:38;;;;;;;42.28;38.45;;;6.60;99.90;;;;;;4950635;28;20058;-69
2024/03/18 06:41:10;;;;;;;42.83;38.67;;;6.50;99.90;;;;;;4952926;28;20042;-68
2024/03/18 06:43:37;;;;;;;46.03;41.13;;;6.60;99.90;;;;;;4950297;28;20108;-70
2024/03/18 06:46:05;;;;;;;41.70;37.78;;;6.60;99.90;;;;;;4970702;28;20050;-70
2024/03/18 06:48:35;;;;;;;44.63;40.75;;;6.60;99.90;;;;;;4971751;28;20068;-68
2024/03/18 06:51:02;;;;;;;43.80;39.55;;;6.60;99.90;;;;;;4965062;28;20112;-69
2024/03/18 06:53:28;;;;;;;43.35;39.20;;;6.70;99.90;;;;;;4939680;28;20539;-69
2024/03/18 06:55:54;;;;;;;41.75;37.47;;;6.80;99.90;;;;;;4971572;28;20051;-69
2024/03/18 06:58:25;;;;;;;43.35;39.40;;;6.80;99.90;;;;;;4977607;28;20149;-69
2024/03/18 07:00:51;;;;;;;43.60;39.15;;;6.80;99.90;;;;;;4955610;28;20066;-69
2024/03/18 07:03:20;;;;;;;41.28;37.45;;;6.90;99.90;;;;;;4952306;28;20728;-69
2024/03/18 07:05:47;;;;;;;43.10;38.90;;;6.80;99.90;;;;;;4965238;28;20064;-69
2024/03/18 07:08:14;;;;;;;42.92;38.92;;;6.70;99.90;;;;;;4965107;28;20054;-68
2024/03/18 07:10:40;;;;;;;45.83;41.22;;;6.80;99.90;;;;;;4967906;28;20057;-69
2024/03/18 07:13:06;;;;;;;44.65;40.65;;;6.70;99.90;;;;;;4960514;28;20047;-70
2024/03/18 07:15:32;;;;;;;43.75;39.83;;;6.80;99.90;;;;;;4967297;28;20336;-68
2024/03/18 07:17:58;;;;;;;43.53;39.22;;;6.80;99.90;;;;;;4954113;28;20049;-68
2024/03/18 07:20:26;;;;;;;45.00;40.35;;;6.90;99.90;;;;;;4952154;28;20046;-70
2024/03/18 07:22:53;;;;;;;44.20;40.10;;;7.00;99.90;;;;;;4968955;28;20045;-68
2024/03/18 07:25:20;;;;;;;45.92;41.28;;;7.10;99.90;;;;;;4966298;28;20137;-69
2024/03/18 07:27:46;;;;;;;46.22;41.90;;;7.10;99.90;;;;;;4969860;28;20046;-70
2024/03/18 07:30:13;;;;;;;45.67;41.72;;;7.20;99.90;;;;;;4968507;28;20043;-69
2024/03/18 07:32:40;;;;;;;46.08;41.67;;;7.20;99.90;;;;;;4957502;28;20713;-70
2024/03/18 07:35:07;;;;;;;48.15;43.75;;;7.30;99.90;;;;;;4947980;28;20055;-69
2024/03/18 07:37:33;;;;;;;47.22;43.03;;;7.30;99.90;;;;;;4976253;28;20038;-70
2024/03/18 07:40:00;;;;;;;45.08;41.08;;;7.30;99.90;;;;;;4960139;28;20065;-68
2024/03/18 07:42:27;;;;;;;43.28;39.13;;;7.30;99.90;;;;;;4955398;28;20030;-69
2024/03/18 07:44:57;;;;;;;48.65;44.58;;;7.30;99.90;;;;;;4956555;28;20081;-69
2024/03/18 07:47:23;;;;;;;45.60;41.33;;;7.40;99.90;;;;;;4958423;28;20596;-69
2024/03/18 07:49:50;;;;;;;41.10;37.13;;;7.60;99.90;;;;;;4970130;28;20045;-69
2024/03/18 07:52:18;;;;;;;44.00;39.83;;;7.50;99.90;;;;;;4965793;28;20077;-67
2024/03/18 07:54:44;;;;;;;42.65;39.05;;;7.40;99.90;;;;;;4962386;28;20046;-70
2024/03/18 07:57:10;;;;;;;43.08;38.63;;;7.40;99.90;;;;;;4949110;28;20053;-69
2024/03/18 07:59:37;;;;;;;44.88;40.83;;;7.30;99.90;;;;;;4956139;28;20976;-70
2024/03/18 08:02:03;;;;;;;45.30;41.20;;;7.30;99.90;;;;;;4930742;28;20069;-70
2024/03/18 08:04:30;;;;;;;42.60;38.67;;;7.40;99.90;;;;;;4950458;28;20101;-71
2024/03/18 08:06:56;;;;;;;43.78;39.28;;;7.40;99.90;;;;;;4955088;28;20157;-68
2024/03/18 08:09:23;;;;;;;43.13;39.13;;;7.30;99.90;;;;;;4954452;28;20736;-70
2024/03/18 08:11:50;;;;;;;42.70;38.50;;;7.20;99.90;;;;;;4939978;28;20046;-68
2024/03/18 08:14:17;;;;;;;44.33;40.35;;;7.20;99.90;;;;;;4944572;28;20043;-70
2024/03/18 08:16:44;;;;;;;43.97;39.85;;;7.20;99.90;;;;;;4934899;28;20234;-69
2024/03/18 08:19:10;;;;;;;47.05;42.65;;;7.20;99.90;;;;;;4924926;28;20104;-68
2024/03/18 08:21:36;;;;;;;46.28;41.90;;;7.20;99.90;;;;;;4938916;28;20085;-69
2024/03/18 08:24:03;;;;;;;46.22;41.97;;;7.20;99.90;;;;;;4956013;28;20045;-69
2024/03/18 08:26:32;;;;;;;44.53;40.30;;;7.20;99.90;;;;;;4946129;28;20057;-68
2024/03/18 08:28:59;;;;;;;46.00;41.80;;;7.20;99.90;;;;;;4955285;28;20054;-69
2024/03/18 08:31:25;;;;;;;45.47;40.78;;;7.30;99.90;;;;;;4951840;28;20712;-70
2024/03/18 08:33:55;;;;;;;43.85;39.88;;;7.30;99.90;;;;;;4964477;28;20145;-69
2024/03/18 08:36:25;;;;;;;45.83;41.53;;;7.40;99.90;;;;;;4941264;28;20430;-69
2024/03/18 08:38:51;;;;;;;46.88;42.67;;;7.40;99.90;;;;;;4964954;28;20069;-70
2024/03/18 08:41:18;;;;;;;46.47;42.33;;;7.30;99.90;;;;;;4968114;28;20042;-69
2024/03/18 08:43:44;;;;;;;47.80;43.17;;;7.30;99.90;;;;;;4940895;28;20104;-69
2024/03/18 08:46:10;;;;;;;49.42;44.95;;;7.30;99.90;;;;;;4949803;28;20050;-70
2024/03/18 08:48:36;;;;;;;47.25;43.08;;;7.20;99.90;;;;;;4970055;28;20057;-68
2024/03/18 08:51:04;;;;;;;53.17;48.15;;;7.20;99.90;;;;;;4957874;28;20254;-70
2024/03/18 08:53:31;;;;;;;51.25;46.65;;;7.20;99.90;;;;;;4952138;28;20074;-70
2024/03/18 08:55:58;;;;;;;51.17;46.58;;;7.20;99.90;;;;;;4960237;28;20058;-70
2024/03/18 08:58:24;;;;;;;54.30;49.25;;;7.30;99.90;;;;;;4954512;28;20051;-69
2024/03/18 09:00:50;;;;;;;52.83;47.47;;;7.30;99.90;;;;;;4972658;28;20088;-70
2024/03/18 09:03:17;;;;;;;46.85;42.00;;;7.30;99.90;;;;;;4939149;28;20050;-70
2024/03/18 09:05:53;;;;;;;46.22;41.65;;;7.30;99.90;;;;;;4961457;28;20114;-71
2024/03/18 09:08:20;;;;;;;45.08;40.60;;;7.30;99.90;;;;;;4955415;28;20161;-71
2024/03/18 09:10:46;;;;;;;45.13;40.22;;;7.30;99.90;;;;;;4961206;28;20680;-72
2024/03/18 09:13:14;;;;;;;46.40;40.58;;;7.30;99.90;;;;;;4951656;28;20043;-71
2024/03/18 09:15:40;;;;;;;46.70;41.67;;;7.30;99.90;;;;;;4947618;28;20046;-71
2024/03/18 09:18:06;;;;;;;43.95;38.80;;;7.40;99.90;;;;;;4927338;28;20054;-70
2024/03/18 09:20:32;;;;;;;46.92;41.78;;;7.30;99.90;;;;;;4944782;28;20050;-72
2024/03/18 09:22:58;;;;;;;44.47;37.58;;;7.20;99.90;;;;;;4943730;28;20077;-73
2024/03/18 09:25:25;;;;;;;44.35;39.60;;;7.10;99.90;;;;;;4940682;28;20046;-73
2024/03/18 09:27:51;;;;;;;45.05;40.05;;;7.10;99.90;;;;;;4932681;28;20051;-73
2024/03/18 09:30:21;;;;;;;49.95;41.40;;;7.10;99.90;;;;;;4950859;28;20057;-73
2024/03/18 09:32:47;;;;;;;46.70;40.90;;;7.10;99.90;;;;;;4940993;28;20061;-73
2024/03/18 09:35:13;;;;;;;47.45;39.80;;;7.10;99.90;;;;;;4933216;28;20522;-74
2024/03/18 09:37:39;;;;;;;44.10;35.25;;;7.20;99.90;;;;;;4953710;28;20536;-75
2024/03/18 09:40:06;;;;;;;51.35;37.70;;;7.00;99.90;;;;;;4944949;28;20069;-75
2024/03/18 09:42:35;;;;;;;46.63;34.25;;;6.80;99.90;;;;;;4962715;28;20047;-75
2024/03/18 09:45:02;;;;;;;47.08;33.40;;;6.70;99.90;;;;;;4939695;28;20058;-73
2024/03/18 09:47:31;;;;;;;43.88;31.75;;;6.70;99.90;;;;;;4934734;28;20069;-75
2024/03/18 09:49:57;;;;;;;46.13;30.70;;;6.70;99.90;;;;;;4961723;28;20057;-73
2024/03/18 09:52:29;;;;;;;42.78;31.80;;;6.80;99.90;;;;;;4950919;28;20154;-73
2024/03/18 09:54:56;;;;;;;48.63;31.90;;;6.80;99.90;;;;;;4957405;28;20097;-74
2024/03/18 09:57:28;;;;;;;45.58;30.65;;;6.80;99.90;;;;;;4949896;28;20041;-75
2024/03/18 09:59:54;;;;;;;44.60;29.63;;;6.90;99.90;;;;;;4945470;28;20039;-74
2024/03/18 10:02:21;;;;;;;51.70;32.67;;;6.80;99.90;;;;;;4940983;28;20045;-75
2024/03/18 10:04:48;;;;;;;47.60;29.77;;;6.80;99.90;;;;;;4951450;28;20104;-74
2024/03/18 10:07:16;;;;;;;43.95;28.75;;;6.90;99.90;;;;;;4969772;28;20074;-74
2024/03/18 10:09:47;;;;;;;49.85;29.27;;;6.90;99.90;;;;;;4941718;28;20108;-75
2024/03/18 10:12:17;;;;;;;50.85;28.58;;;7.00;99.90;;;;;;4952843;28;20049;-73
2024/03/18 10:14:43;;;;;;;44.97;28.73;;;7.00;99.90;;;;;;4932297;28;20137;-76
2024/03/18 10:17:19;;;;;;;48.13;28.55;;;7.20;99.90;;;;;;4936578;28;20038;-74
2024/03/18 10:19:45;;;;;;;38.97;26.83;;;7.10;99.90;;;;;;4949085;28;20058;-75
2024/03/18 10:22:14;;;;;;;48.78;29.67;;;7.10;99.90;;;;;;4950860;28;20099;-75
2024/03/18 10:24:44;;;;;;;49.60;29.75;;;7.20;99.90;;;;;;4966910;28;20152;-73
2024/03/18 10:27:13;;;;;;;47.67;28.23;;;7.20;99.90;;;;;;4969738;28;20113;-74
2024/03/18 10:29:40;;;;;;;41.83;25.42;;;7.30;99.90;;;;;;4962315;28;20427;-74
2024/03/18 10:32:34;;;;;;;43.47;27.92;;;7.30;99.90;;;;;;4954999;28;20046;-75
2024/03/18 10:35:02;;;;;;;43.40;27.13;;;7.30;99.90;;;;;;4933185;28;20203;-74
2024/03/18 10:37:29;;;;;;;42.85;26.17;;;7.30;99.90;;;;;;4953512;28;20050;-75
2024/03/18 10:40:05;;;;;;;57.78;33.22;;;7.30;99.90;;;;;;4974894;28;20080;-72
2024/03/18 10:42:33;;;;;;;49.78;30.67;;;7.40;99.90;;;;;;4968627;28;22543;-74
2024/03/18 10:45:11;;;;;;;45.25;27.98;;;7.50;99.90;;;;;;4969595;28;20746;-75
2024/03/18 10:47:37;;;;;;;48.60;31.40;;;7.50;99.90;;;;;;4970898;28;20086;-74
2024/03/18 10:50:03;;;;;;;50.42;29.88;;;7.50;99.90;;;;;;4951549;28;20042;-75
2024/03/18 10:52:31;;;;;;;51.67;31.63;;;7.60;99.90;;;;;;4936920;28;20088;-75
2024/03/18 10:54:58;;;;;;;51.45;31.58;;;7.70;99.90;;;;;;4941273;28;21056;-75
2024/03/18 10:57:26;;;;;;;49.13;32.75;;;7.90;99.90;;;;;;4931557;28;20046;-74
2024/03/18 10:59:53;;;;;;;47.70;30.25;;;8.00;99.90;;;;;;4943216;28;20045;-75
2024/03/18 11:02:28;;;;;;;45.90;29.38;;;8.00;99.90;;;;;;4950498;28;20042;-74
2024/03/18 11:04:57;;;;;;;42.00;30.80;;;7.90;99.90;;;;;;4948640;28;20050;-74
2024/03/18 11:07:31;;;;;;;50.97;32.13;;;7.80;99.90;;;;;;4964993;28;20057;-75
2024/03/18 11:10:03;;;;;;;48.85;30.95;;;7.80;99.90;;;;;;4954331;28;20060;-74
2024/03/18 11:12:33;;;;;;;43.58;30.42;;;7.90;99.90;;;;;;4964172;28;20053;-74
2024/03/18 11:15:07;;;;;;;41.40;29.05;;;7.90;99.90;;;;;;4953652;28;20054;-75
2024/03/18 11:17:45;;;;;;;44.13;30.60;;;7.70;99.90;;;;;;4945634;28;20046;-74
2024/03/18 11:20:16;;;;;;;36.63;28.30;;;7.90;99.90;;;;;;4948971;28;20063;-74
2024/03/18 11:22:47;;;;;;;42.45;29.10;;;8.00;99.90;;;;;;4943323;28;20541;-73
2024/03/18 11:25:18;;;;;;;38.35;31.02;;;8.10;99.90;;;;;;4949636;28;20042;-71
2024/03/18 11:27:52;;;;;;;43.92;31.63;;;8.20;99.90;;;;;;4944740;28;20046;-72
2024/03/18 11:30:24;;;;;;;44.45;32.25;;;8.40;99.90;;;;;;4957921;28;20061;-72
2024/03/18 11:32:51;;;;;;;41.47;32.72;;;8.50;99.90;;;;;;4970891;28;20082;-73
2024/03/18 11:35:17;;;;;;;41.08;32.05;;;8.40;99.90;;;;;;4958639;28;20046;-71
2024/03/18 11:37:47;;;;;;;38.83;31.98;;;8.50;99.90;;;;;;4938100;28;20673;-70
2024/03/18 11:40:16;;;;;;;44.35;34.15;;;8.40;99.90;;;;;;4965662;28;20101;-70
2024/03/18 11:42:44;;;;;;;39.90;32.47;;;8.30;99.90;;;;;;4953643;28;20065;-72
2024/03/18 11:45:19;;;;;;;39.78;30.20;;;8.30;99.90;;;;;;4967637;28;20034;-71
2024/03/18 11:48:04;;;;;;;43.00;32.10;;;8.10;99.90;;;;;;4962480;28;20062;-72
2024/03/18 11:50:41;;;;;;;43.60;33.60;;;8.20;99.90;;;;;;4948614;28;20126;-69
2024/03/18 11:53:10;;;;;;;52.05;33.30;;;8.20;99.90;;;;;;4980348;28;20046;-72
2024/03/18 11:55:38;;;;;;;43.40;31.05;;;8.20;99.90;;;;;;4967149;28;20056;-71
2024/03/18 11:58:06;;;;;;;49.13;32.97;;;8.20;99.90;;;;;;4947599;28;20047;-70
2024/03/18 12:00:33;;;;;;;42.30;31.20;;;8.20;99.90;;;;;;4947558;28;20103;-72
2024/03/18 12:03:02;;;;;;;45.30;32.15;;;8.20;99.90;;;;;;4947986;28;20042;-70
2024/03/18 12:05:29;;;;;;;40.28;30.73;;;8.20;99.90;;;;;;4944876;28;20042;-71
2024/03/18 12:07:56;;;;;;;37.60;30.45;;;8.10;99.90;;;;;;4952651;28;20061;-71
2024/03/18 12:10:22;;;;;;;42.15;30.98;;;8.00;99.90;;;;;;4950168;28;20057;-69
2024/03/18 12:12:50;;;;;;;44.40;30.92;;;8.00;99.90;;;;;;4964590;28;20295;-72
2024/03/18 12:15:16;;;;;;;41.70;30.08;;;8.10;99.90;;;;;;4937968;28;20050;-69
2024/03/18 12:17:46;;;;;;;45.42;33.55;;;8.10;99.90;;;;;;4960222;28;20077;-71
2024/03/18 12:20:25;;;;;;;46.47;32.38;;;8.20;99.90;;;;;;4954354;28;20046;-70
2024/03/18 12:23:04;;;;;;;46.53;33.40;;;8.20;99.90;;;;;;4963083;28;20351;-70
2024/03/18 12:28:32;;;;;;;39.10;30.02;;;8.40;99.90;;;;;;4948707;28;20054;-71
2024/03/18 12:31:00;;;;;;;43.83;31.55;;;8.50;99.90;;;;;;4966466;28;20061;-71
2024/03/18 12:33:31;;;;;;;46.13;30.65;;;8.40;99.90;;;;;;4963010;28;20681;-71
2024/03/18 12:35:58;;;;;;;41.25;29.08;;;8.50;99.90;;;;;;4958301;28;20607;-71
2024/03/18 12:38:38;;;;;;;42.10;32.63;;;8.50;99.90;;;;;;4945019;28;20054;-70
2024/03/18 12:41:05;;;;;;;43.50;31.92;;;8.60;99.90;;;;;;4966389;28;20045;-71